To NAV CANADA Home Page Login to a new session Search on AWWS site Feedback and Comments Disclaimer Vers la page française équivalente Tips FAQ What's new on the site To the Forecasts and Observations / NOTAM section To "File a Flight Plan" website Publications and other links Update of the User's profile FIC Telephone Numbers My Weather Data Folder Route Weather Data Regional Weather Data Local Weather Data To the Forecasts and Observations / NOTAM section
Request Generated 09/02/2015 at 21:44:33 UTC . Weather information available at that time is displayed.

METAR/TAF

LLOYDMINSTER/AB    (show WxCam)

METAR CYLL 022100Z 20011KT 140V210 15SM FEW100 BKN240 24/05 A2954 RMK
AC1CI6 SLP007 DENSITY ALT 4100FT=
METAR CYLL 022000Z 18009KT 15SM SCT160 BKN240 22/07 A2956 RMK AC3CI4
SLP013 DENSITY ALT 3900FT=
METAR CYLL 021900Z 16010KT 15SM SCT140 BKN250 21/08 A2956 RMK AC3CI4
SLP014 DENSITY ALT 3800FT=

TAF CYLL 021739Z 0218/0306 16010KT P6SM SCT120
FM022300 20012KT P6SM SCT060 TEMPO 0223/0306 P6SM -SHRA BKN060
BECMG 0223/0301 28012KT
RMK NXT FCST BY 030000Z=
Your time UTC time
Weather data provided by Environment Canada and NAV CANADA